sensor_id;sensor_type;location;lat;lon;timestamp;temperature;humidity
28773;DHT22;15925;51.222;5.678;2023-10-09T00:01:01;15.90;99.90
28773;DHT22;15925;51.222;5.678;2023-10-09T00:03:41;15.90;99.90
28773;DHT22;15925;51.222;5.678;2023-10-09T00:06:08;15.80;99.90
28773;DHT22;15925;51.222;5.678;2023-10-09T00:08:34;15.80;99.90
28773;DHT22;15925;51.222;5.678;2023-10-09T00:11:02;15.80;99.90
28773;DHT22;15925;51.222;5.678;2023-10-09T00:13:44;15.80;99.90
28773;DHT22;15925;51.222;5.678;2023-10-09T00:16:23;15.80;99.90
28773;DHT22;15925;51.222;5.678;2023-10-09T00:19:09;15.80;99.90
28773;DHT22;15925;51.222;5.678;2023-10-09T00:21:44;15.80;99.90
28773;DHT22;15925;51.222;5.678;2023-10-09T00:24:10;15.80;99.90
28773;DHT22;15925;51.222;5.678;2023-10-09T00:26:45;15.80;99.90
28773;DHT22;15925;51.222;5.678;2023-10-09T00:29:14;15.80;99.90
28773;DHT22;15925;51.222;5.678;2023-10-09T00:31:52;15.80;99.90
28773;DHT22;15925;51.222;5.678;2023-10-09T00:34:29;15.80;99.90
28773;DHT22;15925;51.222;5.678;2023-10-09T00:36:54;15.80;99.90
28773;DHT22;15925;51.222;5.678;2023-10-09T00:39:23;15.80;99.90
28773;DHT22;15925;51.222;5.678;2023-10-09T00:42:04;15.70;99.90
28773;DHT22;15925;51.222;5.678;2023-10-09T00:44:32;15.70;99.90
28773;DHT22;15925;51.222;5.678;2023-10-09T00:47:06;15.70;99.90
28773;DHT22;15925;51.222;5.678;2023-10-09T00:49:52;15.60;99.90
28773;DHT22;15925;51.222;5.678;2023-10-09T00:52:28;15.60;99.90
28773;DHT22;15925;51.222;5.678;2023-10-09T00:55:01;15.60;99.90
28773;DHT22;15925;51.222;5.678;2023-10-09T00:57:33;15.60;99.90
28773;DHT22;15925;51.222;5.678;2023-10-09T01:00:01;15.60;99.90
28773;DHT22;15925;51.222;5.678;2023-10-09T01:02:38;15.50;99.90
28773;DHT22;15925;51.222;5.678;2023-10-09T01:05:08;15.60;99.90
28773;DHT22;15925;51.222;5.678;2023-10-09T01:07:47;15.50;99.90
28773;DHT22;15925;51.222;5.678;2023-10-09T01:10:13;15.40;99.90
28773;DHT22;15925;51.222;5.678;2023-10-09T01:12:42;15.50;99.90
28773;DHT22;15925;51.222;5.678;2023-10-09T01:15:10;15.50;99.90
28773;DHT22;15925;51.222;5.678;2023-10-09T01:17:44;15.50;99.90
28773;DHT22;15925;51.222;5.678;2023-10-09T01:20:11;15.60;99.90
28773;DHT22;15925;51.222;5.678;2023-10-09T01:22:42;15.50;99.90
28773;DHT22;15925;51.222;5.678;2023-10-09T01:25:09;15.50;99.90
28773;DHT22;15925;51.222;5.678;2023-10-09T01:27:35;15.40;99.90
28773;DHT22;15925;51.222;5.678;2023-10-09T01:30:05;15.40;99.90
28773;DHT22;15925;51.222;5.678;2023-10-09T01:32:32;15.50;99.90
28773;DHT22;15925;51.222;5.678;2023-10-09T01:35:00;15.60;99.90
28773;DHT22;15925;51.222;5.678;2023-10-09T01:37:25;15.40;99.90
28773;DHT22;15925;51.222;5.678;2023-10-09T01:39:52;15.20;99.90
28773;DHT22;15925;51.222;5.678;2023-10-09T01:42:18;15.30;99.90
28773;DHT22;15925;51.222;5.678;2023-10-09T01:45:00;15.40;99.90
28773;DHT22;15925;51.222;5.678;2023-10-09T01:47:49;15.30;99.90
28773;DHT22;15925;51.222;5.678;2023-10-09T01:50:19;15.20;99.90
28773;DHT22;15925;51.222;5.678;2023-10-09T01:52:56;15.20;99.90
28773;DHT22;15925;51.222;5.678;2023-10-09T01:55:22;15.10;99.90
28773;DHT22;15925;51.222;5.678;2023-10-09T01:58:06;15.20;99.90
28773;DHT22;15925;51.222;5.678;2023-10-09T02:00:43;15.30;99.90
28773;DHT22;15925;51.222;5.678;2023-10-09T02:03:14;15.40;99.90
28773;DHT22;15925;51.222;5.678;2023-10-09T02:05:43;15.30;99.90
28773;DHT22;15925;51.222;5.678;2023-10-09T02:08:09;15.40;99.90
28773;DHT22;15925;51.222;5.678;2023-10-09T02:10:38;15.50;99.90
28773;DHT22;15925;51.222;5.678;2023-10-09T02:13:13;15.50;99.90
28773;DHT22;15925;51.222;5.678;2023-10-09T02:15:42;15.50;99.90
28773;DHT22;15925;51.222;5.678;2023-10-09T02:18:12;15.60;99.90
28773;DHT22;15925;51.222;5.678;2023-10-09T02:20:44;15.60;99.90
28773;DHT22;15925;51.222;5.678;2023-10-09T02:23:11;15.60;99.90
28773;DHT22;15925;51.222;5.678;2023-10-09T02:25:39;15.50;99.90
28773;DHT22;15925;51.222;5.678;2023-10-09T02:28:09;15.40;99.90
28773;DHT22;15925;51.222;5.678;2023-10-09T02:30:43;15.50;99.90
28773;DHT22;15925;51.222;5.678;2023-10-09T02:33:16;15.60;99.90
28773;DHT22;15925;51.222;5.678;2023-10-09T02:35:53;15.40;99.90
28773;DHT22;15925;51.222;5.678;2023-10-09T02:38:20;15.30;99.90
28773;DHT22;15925;51.222;5.678;2023-10-09T02:40:51;15.30;99.90
28773;DHT22;15925;51.222;5.678;2023-10-09T02:43:46;15.20;99.90
28773;DHT22;15925;51.222;5.678;2023-10-09T02:46:20;15.40;99.90
28773;DHT22;15925;51.222;5.678;2023-10-09T02:48:47;15.40;99.90
28773;DHT22;15925;51.222;5.678;2023-10-09T02:51:20;15.50;99.90
28773;DHT22;15925;51.222;5.678;2023-10-09T02:53:52;15.30;99.90
28773;DHT22;15925;51.222;5.678;2023-10-09T02:56:17;15.40;99.90
28773;DHT22;15925;51.222;5.678;2023-10-09T02:58:52;15.50;99.90
28773;DHT22;15925;51.222;5.678;2023-10-09T03:01:17;15.50;99.90
28773;DHT22;15925;51.222;5.678;2023-10-09T03:03:43;15.50;99.90
28773;DHT22;15925;51.222;5.678;2023-10-09T03:06:11;15.60;99.90
28773;DHT22;15925;51.222;5.678;2023-10-09T03:08:39;15.60;99.90
28773;DHT22;15925;51.222;5.678;2023-10-09T03:11:08;15.60;99.90
28773;DHT22;15925;51.222;5.678;2023-10-09T03:13:42;15.70;99.90
28773;DHT22;15925;51.222;5.678;2023-10-09T03:16:09;15.70;99.90
28773;DHT22;15925;51.222;5.678;2023-10-09T03:18:52;15.70;99.90
28773;DHT22;15925;51.222;5.678;2023-10-09T03:21:18;15.40;99.90
28773;DHT22;15925;51.222;5.678;2023-10-09T03:23:47;15.50;99.90
28773;DHT22;15925;51.222;5.678;2023-10-09T03:26:16;15.60;99.90
28773;DHT22;15925;51.222;5.678;2023-10-09T03:28:44;15.60;99.90
28773;DHT22;15925;51.222;5.678;2023-10-09T03:31:10;15.70;99.90
28773;DHT22;15925;51.222;5.678;2023-10-09T03:33:36;15.70;99.90
28773;DHT22;15925;51.222;5.678;2023-10-09T03:36:02;15.60;99.90
28773;DHT22;15925;51.222;5.678;2023-10-09T03:38:33;15.40;99.90
28773;DHT22;15925;51.222;5.678;2023-10-09T03:41:03;15.40;99.90
28773;DHT22;15925;51.222;5.678;2023-10-09T03:43:32;15.40;99.90
28773;DHT22;15925;51.222;5.678;2023-10-09T03:45:59;15.40;99.90
28773;DHT22;15925;51.222;5.678;2023-10-09T03:48:28;15.40;99.90
28773;DHT22;15925;51.222;5.678;2023-10-09T03:50:58;15.40;99.90
28773;DHT22;15925;51.222;5.678;2023-10-09T03:53:38;15.40;99.90
28773;DHT22;15925;51.222;5.678;2023-10-09T03:56:12;15.50;99.90
28773;DHT22;15925;51.222;5.678;2023-10-09T03:58:39;15.50;99.90
28773;DHT22;15925;51.222;5.678;2023-10-09T04:01:11;15.50;99.90
28773;DHT22;15925;51.222;5.678;2023-10-09T04:03:58;15.60;99.90
28773;DHT22;15925;51.222;5.678;2023-10-09T04:06:27;15.60;99.90
28773;DHT22;15925;51.222;5.678;2023-10-09T04:09:01;15.60;99.90
28773;DHT22;15925;51.222;5.678;2023-10-09T04:11:39;15.70;99.90
28773;DHT22;15925;51.222;5.678;2023-10-09T04:14:08;15.70;99.90
28773;DHT22;15925;51.222;5.678;2023-10-09T04:16:38;15.70;99.90
28773;DHT22;15925;51.222;5.678;2023-10-09T04:19:16;15.70;99.90
28773;DHT22;15925;51.222;5.678;2023-10-09T04:21:50;15.70;99.90
28773;DHT22;15925;51.222;5.678;2023-10-09T04:24:20;15.70;99.90
28773;DHT22;15925;51.222;5.678;2023-10-09T04:26:46;15.70;99.90
28773;DHT22;15925;51.222;5.678;2023-10-09T04:31:55;15.80;99.90
28773;DHT22;15925;51.222;5.678;2023-10-09T04:34:25;15.80;99.90
28773;DHT22;15925;51.222;5.678;2023-10-09T04:36:50;15.80;99.90
28773;DHT22;15925;51.222;5.678;2023-10-09T04:39:40;15.80;99.90
28773;DHT22;15925;51.222;5.678;2023-10-09T04:42:12;15.80;99.90
28773;DHT22;15925;51.222;5.678;2023-10-09T04:44:45;15.80;99.90
28773;DHT22;15925;51.222;5.678;2023-10-09T04:47:26;15.70;99.90
28773;DHT22;15925;51.222;5.678;2023-10-09T04:50:02;15.70;99.90
28773;DHT22;15925;51.222;5.678;2023-10-09T04:52:39;15.80;99.90
28773;DHT22;15925;51.222;5.678;2023-10-09T04:55:06;15.80;99.90
28773;DHT22;15925;51.222;5.678;2023-10-09T04:57:35;15.80;99.90
28773;DHT22;15925;51.222;5.678;2023-10-09T05:00:21;15.80;99.90
28773;DHT22;15925;51.222;5.678;2023-10-09T05:02:53;15.80;99.90
28773;DHT22;15925;51.222;5.678;2023-10-09T05:05:29;15.80;99.90
28773;DHT22;15925;51.222;5.678;2023-10-09T05:08:10;15.70;99.90
28773;DHT22;15925;51.222;5.678;2023-10-09T05:10:53;15.60;99.90
28773;DHT22;15925;51.222;5.678;2023-10-09T05:13:25;15.50;99.90
28773;DHT22;15925;51.222;5.678;2023-10-09T05:16:15;15.50;99.90
28773;DHT22;15925;51.222;5.678;2023-10-09T05:18:47;15.60;99.90
28773;DHT22;15925;51.222;5.678;2023-10-09T05:23:59;15.60;99.90
28773;DHT22;15925;51.222;5.678;2023-10-09T05:26:50;15.60;99.90
28773;DHT22;15925;51.222;5.678;2023-10-09T05:29:17;15.70;99.90
28773;DHT22;15925;51.222;5.678;2023-10-09T05:31:58;15.60;99.90
28773;DHT22;15925;51.222;5.678;2023-10-09T05:34:40;15.60;99.90
28773;DHT22;15925;51.222;5.678;2023-10-09T05:39:52;15.50;99.90
28773;DHT22;15925;51.222;5.678;2023-10-09T05:45:08;15.60;99.90
28773;DHT22;15925;51.222;5.678;2023-10-09T05:47:43;15.60;99.90
28773;DHT22;15925;51.222;5.678;2023-10-09T05:50:27;15.60;99.90
28773;DHT22;15925;51.222;5.678;2023-10-09T05:52:54;15.60;99.90
28773;DHT22;15925;51.222;5.678;2023-10-09T05:55:23;15.50;99.90
28773;DHT22;15925;51.222;5.678;2023-10-09T05:57:53;15.50;99.90
28773;DHT22;15925;51.222;5.678;2023-10-09T06:00:37;15.50;99.90
28773;DHT22;15925;51.222;5.678;2023-10-09T06:03:21;15.50;99.90
28773;DHT22;15925;51.222;5.678;2023-10-09T06:06:13;15.50;99.90
28773;DHT22;15925;51.222;5.678;2023-10-09T06:08:58;15.50;99.90
28773;DHT22;15925;51.222;5.678;2023-10-09T06:11:39;15.50;99.90
28773;DHT22;15925;51.222;5.678;2023-10-09T06:14:04;15.40;99.90
28773;DHT22;15925;51.222;5.678;2023-10-09T06:16:33;15.50;99.90
28773;DHT22;15925;51.222;5.678;2023-10-09T06:19:13;15.50;99.90
28773;DHT22;15925;51.222;5.678;2023-10-09T06:21:55;15.50;99.90
28773;DHT22;15925;51.222;5.678;2023-10-09T06:24:40;15.50;99.90
28773;DHT22;15925;51.222;5.678;2023-10-09T06:27:20;15.60;99.90
28773;DHT22;15925;51.222;5.678;2023-10-09T06:29:55;15.60;99.90
28773;DHT22;15925;51.222;5.678;2023-10-09T06:32:42;15.50;99.90
28773;DHT22;15925;51.222;5.678;2023-10-09T06:35:23;15.60;99.90
28773;DHT22;15925;51.222;5.678;2023-10-09T06:37:56;15.70;99.90
28773;DHT22;15925;51.222;5.678;2023-10-09T06:43:15;15.60;99.90
28773;DHT22;15925;51.222;5.678;2023-10-09T06:45:53;15.60;99.90
28773;DHT22;15925;51.222;5.678;2023-10-09T06:48:38;15.60;99.90
28773;DHT22;15925;51.222;5.678;2023-10-09T06:51:04;15.70;99.90
28773;DHT22;15925;51.222;5.678;2023-10-09T06:53:44;15.80;99.90
28773;DHT22;15925;51.222;5.678;2023-10-09T06:56:22;15.80;99.90
28773;DHT22;15925;51.222;5.678;2023-10-09T06:59:00;15.90;99.90
28773;DHT22;15925;51.222;5.678;2023-10-09T07:01:29;16.00;99.90
28773;DHT22;15925;51.222;5.678;2023-10-09T07:04:04;15.90;99.90
28773;DHT22;15925;51.222;5.678;2023-10-09T07:06:47;16.00;99.90
28773;DHT22;15925;51.222;5.678;2023-10-09T07:09:13;16.00;99.90
28773;DHT22;15925;51.222;5.678;2023-10-09T07:11:39;16.00;99.90
28773;DHT22;15925;51.222;5.678;2023-10-09T07:14:05;16.10;99.90
28773;DHT22;15925;51.222;5.678;2023-10-09T07:16:35;16.00;99.90
28773;DHT22;15925;51.222;5.678;2023-10-09T07:19:04;16.00;99.90
28773;DHT22;15925;51.222;5.678;2023-10-09T07:21:50;16.00;99.90
28773;DHT22;15925;51.222;5.678;2023-10-09T07:24:22;16.00;99.90
28773;DHT22;15925;51.222;5.678;2023-10-09T07:27:06;16.00;99.90
28773;DHT22;15925;51.222;5.678;2023-10-09T07:29:35;16.00;99.90
28773;DHT22;15925;51.222;5.678;2023-10-09T07:32:19;16.10;99.90
28773;DHT22;15925;51.222;5.678;2023-10-09T07:34:50;16.10;99.90
28773;DHT22;15925;51.222;5.678;2023-10-09T07:37:22;16.10;99.90
28773;DHT22;15925;51.222;5.678;2023-10-09T07:39:49;16.10;99.90
28773;DHT22;15925;51.222;5.678;2023-10-09T07:42:22;16.20;99.90
28773;DHT22;15925;51.222;5.678;2023-10-09T07:45:06;16.20;99.90
28773;DHT22;15925;51.222;5.678;2023-10-09T07:47:47;16.30;99.90
28773;DHT22;15925;51.222;5.678;2023-10-09T07:50:25;16.30;99.90
28773;DHT22;15925;51.222;5.678;2023-10-09T07:52:57;16.40;99.90
28773;DHT22;15925;51.222;5.678;2023-10-09T07:55:40;16.40;99.90
28773;DHT22;15925;51.222;5.678;2023-10-09T07:58:11;16.40;99.90
28773;DHT22;15925;51.222;5.678;2023-10-09T08:00:40;16.50;99.90
28773;DHT22;15925;51.222;5.678;2023-10-09T08:03:32;16.40;99.90
28773;DHT22;15925;51.222;5.678;2023-10-09T08:06:00;16.40;99.90
28773;DHT22;15925;51.222;5.678;2023-10-09T08:08:44;16.40;99.90
28773;DHT22;15925;51.222;5.678;2023-10-09T08:11:29;16.30;99.90
28773;DHT22;15925;51.222;5.678;2023-10-09T08:14:06;16.30;99.90
28773;DHT22;15925;51.222;5.678;2023-10-09T08:16:46;16.30;99.90
28773;DHT22;15925;51.222;5.678;2023-10-09T08:19:12;16.30;99.90
28773;DHT22;15925;51.222;5.678;2023-10-09T08:22:10;16.30;99.90
28773;DHT22;15925;51.222;5.678;2023-10-09T08:24:51;16.30;99.90
28773;DHT22;15925;51.222;5.678;2023-10-09T08:27:26;16.40;99.90
28773;DHT22;15925;51.222;5.678;2023-10-09T08:30:12;16.50;99.90
28773;DHT22;15925;51.222;5.678;2023-10-09T08:32:48;16.60;99.90
28773;DHT22;15925;51.222;5.678;2023-10-09T08:35:32;16.60;99.90
28773;DHT22;15925;51.222;5.678;2023-10-09T08:37:59;16.70;99.90
28773;DHT22;15925;51.222;5.678;2023-10-09T08:40:42;16.70;99.90
28773;DHT22;15925;51.222;5.678;2023-10-09T08:45:38;16.80;99.90
28773;DHT22;15925;51.222;5.678;2023-10-09T08:48:08;16.90;99.90
28773;DHT22;15925;51.222;5.678;2023-10-09T08:50:35;16.90;99.90
28773;DHT22;15925;51.222;5.678;2023-10-09T08:53:01;16.90;99.90
28773;DHT22;15925;51.222;5.678;2023-10-09T08:55:28;17.00;99.90
28773;DHT22;15925;51.222;5.678;2023-10-09T08:57:54;17.10;99.90
28773;DHT22;15925;51.222;5.678;2023-10-09T09:00:23;17.00;99.90
28773;DHT22;15925;51.222;5.678;2023-10-09T09:02:58;17.10;99.90
28773;DHT22;15925;51.222;5.678;2023-10-09T09:05:25;17.20;99.90
28773;DHT22;15925;51.222;5.678;2023-10-09T09:07:54;17.20;99.90
28773;DHT22;15925;51.222;5.678;2023-10-09T09:10:28;17.30;99.90
28773;DHT22;15925;51.222;5.678;2023-10-09T09:13:03;17.40;99.90
28773;DHT22;15925;51.222;5.678;2023-10-09T09:15:29;17.40;99.90
28773;DHT22;15925;51.222;5.678;2023-10-09T09:18:03;17.40;99.90
28773;DHT22;15925;51.222;5.678;2023-10-09T09:20:31;17.60;99.90
28773;DHT22;15925;51.222;5.678;2023-10-09T09:23:09;17.70;99.90
28773;DHT22;15925;51.222;5.678;2023-10-09T09:25:42;17.80;99.90
28773;DHT22;15925;51.222;5.678;2023-10-09T09:28:12;17.80;99.90
28773;DHT22;15925;51.222;5.678;2023-10-09T09:30:46;17.90;99.90
28773;DHT22;15925;51.222;5.678;2023-10-09T09:33:17;18.00;99.90
28773;DHT22;15925;51.222;5.678;2023-10-09T09:38:25;18.10;99.90
28773;DHT22;15925;51.222;5.678;2023-10-09T09:40:51;18.10;99.90
28773;DHT22;15925;51.222;5.678;2023-10-09T09:43:19;18.10;99.90
28773;DHT22;15925;51.222;5.678;2023-10-09T09:45:50;18.20;99.90
28773;DHT22;15925;51.222;5.678;2023-10-09T09:48:18;18.20;99.90
28773;DHT22;15925;51.222;5.678;2023-10-09T09:50:44;18.20;99.90
28773;DHT22;15925;51.222;5.678;2023-10-09T09:53:11;18.30;99.90
28773;DHT22;15925;51.222;5.678;2023-10-09T09:55:44;18.30;99.90
28773;DHT22;15925;51.222;5.678;2023-10-09T09:58:17;18.30;99.90
28773;DHT22;15925;51.222;5.678;2023-10-09T10:00:52;18.40;99.90
28773;DHT22;15925;51.222;5.678;2023-10-09T10:05:44;18.40;99.90
28773;DHT22;15925;51.222;5.678;2023-10-09T10:08:17;18.50;99.90
28773;DHT22;15925;51.222;5.678;2023-10-09T10:10:48;18.50;99.90
28773;DHT22;15925;51.222;5.678;2023-10-09T10:16:05;18.60;99.90
28773;DHT22;15925;51.222;5.678;2023-10-09T10:21:17;18.60;99.90
28773;DHT22;15925;51.222;5.678;2023-10-09T10:23:44;18.60;99.90
28773;DHT22;15925;51.222;5.678;2023-10-09T10:26:22;18.70;99.90
28773;DHT22;15925;51.222;5.678;2023-10-09T10:31:53;18.70;99.90
28773;DHT22;15925;51.222;5.678;2023-10-09T10:34:22;18.80;99.90
28773;DHT22;15925;51.222;5.678;2023-10-09T10:36:49;18.80;99.90
28773;DHT22;15925;51.222;5.678;2023-10-09T10:39:24;18.80;99.90
28773;DHT22;15925;51.222;5.678;2023-10-09T10:42:08;18.80;99.90
28773;DHT22;15925;51.222;5.678;2023-10-09T10:44:35;18.90;99.90
28773;DHT22;15925;51.222;5.678;2023-10-09T10:47:07;19.00;99.90
28773;DHT22;15925;51.222;5.678;2023-10-09T10:49:49;19.00;99.90
28773;DHT22;15925;51.222;5.678;2023-10-09T10:52:24;19.10;99.90
28773;DHT22;15925;51.222;5.678;2023-10-09T10:55:13;19.10;99.90
28773;DHT22;15925;51.222;5.678;2023-10-09T10:57:57;19.20;99.90
28773;DHT22;15925;51.222;5.678;2023-10-09T11:00:35;19.10;99.90
28773;DHT22;15925;51.222;5.678;2023-10-09T11:03:20;19.20;99.90
28773;DHT22;15925;51.222;5.678;2023-10-09T11:06:01;19.30;99.90
28773;DHT22;15925;51.222;5.678;2023-10-09T11:08:47;19.30;99.90
28773;DHT22;15925;51.222;5.678;2023-10-09T11:11:34;19.40;99.90
28773;DHT22;15925;51.222;5.678;2023-10-09T11:14:12;19.40;99.90
28773;DHT22;15925;51.222;5.678;2023-10-09T11:16:43;19.40;99.90
28773;DHT22;15925;51.222;5.678;2023-10-09T11:19:13;19.40;99.90
28773;DHT22;15925;51.222;5.678;2023-10-09T11:21:54;19.40;99.90
28773;DHT22;15925;51.222;5.678;2023-10-09T11:24:33;19.50;99.90
28773;DHT22;15925;51.222;5.678;2023-10-09T11:27:03;19.60;99.90
28773;DHT22;15925;51.222;5.678;2023-10-09T11:29:35;19.60;99.90
28773;DHT22;15925;51.222;5.678;2023-10-09T11:32:17;19.60;99.90
28773;DHT22;15925;51.222;5.678;2023-10-09T11:34:44;19.70;99.90
28773;DHT22;15925;51.222;5.678;2023-10-09T11:37:18;19.70;99.90
28773;DHT22;15925;51.222;5.678;2023-10-09T11:40:04;19.70;99.90
28773;DHT22;15925;51.222;5.678;2023-10-09T11:42:48;19.80;99.90
28773;DHT22;15925;51.222;5.678;2023-10-09T11:45:21;19.80;99.90
28773;DHT22;15925;51.222;5.678;2023-10-09T11:47:49;19.80;99.90
28773;DHT22;15925;51.222;5.678;2023-10-09T11:50:42;19.80;99.90
28773;DHT22;15925;51.222;5.678;2023-10-09T11:53:09;19.80;99.90
28773;DHT22;15925;51.222;5.678;2023-10-09T11:55:46;19.80;99.90
28773;DHT22;15925;51.222;5.678;2023-10-09T11:58:15;19.90;99.90
28773;DHT22;15925;51.222;5.678;2023-10-09T12:01:30;20.00;99.90
28773;DHT22;15925;51.222;5.678;2023-10-09T12:03:41;20.10;99.90
28773;DHT22;15925;51.222;5.678;2023-10-09T12:06:08;20.10;99.90
28773;DHT22;15925;51.222;5.678;2023-10-09T12:08:37;20.10;99.90
28773;DHT22;15925;51.222;5.678;2023-10-09T12:11:05;20.20;99.90
28773;DHT22;15925;51.222;5.678;2023-10-09T12:13:35;20.30;99.90
28773;DHT22;15925;51.222;5.678;2023-10-09T12:16:03;20.30;99.90
28773;DHT22;15925;51.222;5.678;2023-10-09T12:18:33;20.30;99.90
28773;DHT22;15925;51.222;5.678;2023-10-09T12:21:00;20.30;99.90
28773;DHT22;15925;51.222;5.678;2023-10-09T12:23:29;20.40;99.90
28773;DHT22;15925;51.222;5.678;2023-10-09T12:26:01;20.40;99.90
28773;DHT22;15925;51.222;5.678;2023-10-09T12:28:27;20.40;99.90
28773;DHT22;15925;51.222;5.678;2023-10-09T12:30:53;20.40;99.90
28773;DHT22;15925;51.222;5.678;2023-10-09T12:33:20;20.50;99.90
28773;DHT22;15925;51.222;5.678;2023-10-09T12:35:53;20.50;99.90
28773;DHT22;15925;51.222;5.678;2023-10-09T12:38:19;20.50;99.90
28773;DHT22;15925;51.222;5.678;2023-10-09T12:40:48;20.50;99.90
28773;DHT22;15925;51.222;5.678;2023-10-09T12:43:17;20.50;99.90
28773;DHT22;15925;51.222;5.678;2023-10-09T12:45:47;20.60;99.90
28773;DHT22;15925;51.222;5.678;2023-10-09T12:48:13;20.60;99.90
28773;DHT22;15925;51.222;5.678;2023-10-09T12:50:40;20.60;99.90
28773;DHT22;15925;51.222;5.678;2023-10-09T12:53:10;20.60;99.90
28773;DHT22;15925;51.222;5.678;2023-10-09T12:55:38;20.60;99.90
28773;DHT22;15925;51.222;5.678;2023-10-09T12:58:07;20.50;99.90
28773;DHT22;15925;51.222;5.678;2023-10-09T13:00:33;20.50;99.90
28773;DHT22;15925;51.222;5.678;2023-10-09T13:03:03;20.50;99.90
28773;DHT22;15925;51.222;5.678;2023-10-09T13:05:39;20.50;99.90
28773;DHT22;15925;51.222;5.678;2023-10-09T13:08:24;20.40;99.90
28773;DHT22;15925;51.222;5.678;2023-10-09T13:10:56;20.40;99.90
28773;DHT22;15925;51.222;5.678;2023-10-09T13:13:26;20.30;99.90
28773;DHT22;15925;51.222;5.678;2023-10-09T13:16:02;20.30;99.90
28773;DHT22;15925;51.222;5.678;2023-10-09T13:18:31;20.20;99.90
28773;DHT22;15925;51.222;5.678;2023-10-09T13:20:57;20.30;99.90
28773;DHT22;15925;51.222;5.678;2023-10-09T13:23:22;20.30;99.90
28773;DHT22;15925;51.222;5.678;2023-10-09T13:25:50;20.30;99.90
28773;DHT22;15925;51.222;5.678;2023-10-09T13:28:16;20.30;99.90
28773;DHT22;15925;51.222;5.678;2023-10-09T13:30:46;20.30;99.90
28773;DHT22;15925;51.222;5.678;2023-10-09T13:33:14;20.30;99.90
28773;DHT22;15925;51.222;5.678;2023-10-09T13:35:42;20.40;99.90
28773;DHT22;15925;51.222;5.678;2023-10-09T13:38:16;20.40;99.90
28773;DHT22;15925;51.222;5.678;2023-10-09T13:40:42;20.40;99.90
28773;DHT22;15925;51.222;5.678;2023-10-09T13:43:07;20.40;99.90
28773;DHT22;15925;51.222;5.678;2023-10-09T13:45:41;20.40;99.90
28773;DHT22;15925;51.222;5.678;2023-10-09T13:48:14;20.40;99.90
28773;DHT22;15925;51.222;5.678;2023-10-09T13:50:43;20.40;99.90
28773;DHT22;15925;51.222;5.678;2023-10-09T13:53:09;20.50;99.90
28773;DHT22;15925;51.222;5.678;2023-10-09T13:55:37;20.40;99.90
28773;DHT22;15925;51.222;5.678;2023-10-09T13:58:09;20.40;99.90
28773;DHT22;15925;51.222;5.678;2023-10-09T14:00:39;20.40;99.90
28773;DHT22;15925;51.222;5.678;2023-10-09T14:03:08;20.40;99.90
28773;DHT22;15925;51.222;5.678;2023-10-09T14:05:40;20.50;99.90
28773;DHT22;15925;51.222;5.678;2023-10-09T14:08:28;20.50;99.90
28773;DHT22;15925;51.222;5.678;2023-10-09T14:10:54;20.50;99.90
28773;DHT22;15925;51.222;5.678;2023-10-09T14:13:20;20.50;99.90
28773;DHT22;15925;51.222;5.678;2023-10-09T14:15:53;20.60;99.90
28773;DHT22;15925;51.222;5.678;2023-10-09T14:18:22;20.60;99.90
28773;DHT22;15925;51.222;5.678;2023-10-09T14:20:48;20.50;99.90
28773;DHT22;15925;51.222;5.678;2023-10-09T14:23:15;20.50;99.90
28773;DHT22;15925;51.222;5.678;2023-10-09T14:25:46;20.50;99.90
28773;DHT22;15925;51.222;5.678;2023-10-09T14:28:15;20.50;99.90
28773;DHT22;15925;51.222;5.678;2023-10-09T14:30:44;20.50;99.90
28773;DHT22;15925;51.222;5.678;2023-10-09T14:33:12;20.50;99.90
28773;DHT22;15925;51.222;5.678;2023-10-09T14:35:41;20.50;99.90
28773;DHT22;15925;51.222;5.678;2023-10-09T14:38:07;20.50;99.90
28773;DHT22;15925;51.222;5.678;2023-10-09T14:40:46;20.60;99.90
28773;DHT22;15925;51.222;5.678;2023-10-09T14:43:13;20.60;99.90
28773;DHT22;15925;51.222;5.678;2023-10-09T14:45:48;20.60;99.90
28773;DHT22;15925;51.222;5.678;2023-10-09T14:48:17;20.70;99.90
28773;DHT22;15925;51.222;5.678;2023-10-09T14:50:49;20.80;99.90
28773;DHT22;15925;51.222;5.678;2023-10-09T14:53:18;20.70;99.90
28773;DHT22;15925;51.222;5.678;2023-10-09T14:55:45;20.80;99.90
28773;DHT22;15925;51.222;5.678;2023-10-09T14:58:11;20.70;99.90
28773;DHT22;15925;51.222;5.678;2023-10-09T15:00:37;20.80;99.90
28773;DHT22;15925;51.222;5.678;2023-10-09T15:03:04;20.80;99.90
28773;DHT22;15925;51.222;5.678;2023-10-09T15:05:29;20.60;99.90
28773;DHT22;15925;51.222;5.678;2023-10-09T15:07:57;20.60;99.90
28773;DHT22;15925;51.222;5.678;2023-10-09T15:10:22;20.50;99.90
28773;DHT22;15925;51.222;5.678;2023-10-09T15:12:49;20.50;99.90
28773;DHT22;15925;51.222;5.678;2023-10-09T15:15:15;20.40;99.90
28773;DHT22;15925;51.222;5.678;2023-10-09T15:17:41;20.40;99.90
28773;DHT22;15925;51.222;5.678;2023-10-09T15:20:12;20.40;99.90
28773;DHT22;15925;51.222;5.678;2023-10-09T15:22:40;20.30;99.90
28773;DHT22;15925;51.222;5.678;2023-10-09T15:25:05;20.20;99.90
28773;DHT22;15925;51.222;5.678;2023-10-09T15:27:32;20.20;99.90
28773;DHT22;15925;51.222;5.678;2023-10-09T15:29:57;20.30;99.90
28773;DHT22;15925;51.222;5.678;2023-10-09T15:32:23;20.40;99.90
28773;DHT22;15925;51.222;5.678;2023-10-09T15:34:54;20.30;99.90
28773;DHT22;15925;51.222;5.678;2023-10-09T15:37:21;20.30;99.90
28773;DHT22;15925;51.222;5.678;2023-10-09T15:39:48;20.20;99.90
28773;DHT22;15925;51.222;5.678;2023-10-09T15:42:15;20.30;99.90
28773;DHT22;15925;51.222;5.678;2023-10-09T15:44:42;20.40;99.90
28773;DHT22;15925;51.222;5.678;2023-10-09T15:47:07;20.40;99.90
28773;DHT22;15925;51.222;5.678;2023-10-09T15:49:37;20.30;99.90
28773;DHT22;15925;51.222;5.678;2023-10-09T15:52:06;20.30;99.90
28773;DHT22;15925;51.222;5.678;2023-10-09T15:54:34;20.30;99.90
28773;DHT22;15925;51.222;5.678;2023-10-09T15:57:00;20.30;99.90
28773;DHT22;15925;51.222;5.678;2023-10-09T15:59:25;20.30;99.90
28773;DHT22;15925;51.222;5.678;2023-10-09T16:01:51;20.20;99.90
28773;DHT22;15925;51.222;5.678;2023-10-09T16:04:18;20.20;99.90
28773;DHT22;15925;51.222;5.678;2023-10-09T16:06:44;20.30;99.90
28773;DHT22;15925;51.222;5.678;2023-10-09T16:09:09;20.30;99.90
28773;DHT22;15925;51.222;5.678;2023-10-09T16:11:37;20.30;99.90
28773;DHT22;15925;51.222;5.678;2023-10-09T16:14:05;20.30;99.90
28773;DHT22;15925;51.222;5.678;2023-10-09T16:16:35;20.30;99.90
28773;DHT22;15925;51.222;5.678;2023-10-09T16:19:09;20.30;99.90
28773;DHT22;15925;51.222;5.678;2023-10-09T16:21:35;20.20;99.90
28773;DHT22;15925;51.222;5.678;2023-10-09T16:24:01;20.10;99.90
28773;DHT22;15925;51.222;5.678;2023-10-09T16:26:27;20.00;99.90
28773;DHT22;15925;51.222;5.678;2023-10-09T16:28:54;20.10;99.90
28773;DHT22;15925;51.222;5.678;2023-10-09T16:31:19;20.00;99.90